sensor_id;sensor_type;location;lat;lon;timestamp;P1;durP1;ratioP1;P2;durP2;ratioP2
69327;SDS011;56472;52.114;5.492;2023-05-10T00:00:01;1.25;;;0.50;;
69327;SDS011;56472;52.114;5.492;2023-05-10T00:02:38;1.73;;;0.52;;
69327;SDS011;56472;52.114;5.492;2023-05-10T00:05:06;0.55;;;0.55;;
69327;SDS011;56472;52.114;5.492;2023-05-10T00:07:33;0.60;;;0.60;;
69327;SDS011;56472;52.114;5.492;2023-05-10T00:10:00;0.47;;;0.47;;
69327;SDS011;56472;52.114;5.492;2023-05-10T00:12:27;0.50;;;0.50;;
69327;SDS011;56472;52.114;5.492;2023-05-10T00:14:54;0.60;;;0.60;;
69327;SDS011;56472;52.114;5.492;2023-05-10T00:17:21;0.63;;;0.63;;
69327;SDS011;56472;52.114;5.492;2023-05-10T00:19:47;0.57;;;0.57;;
69327;SDS011;56472;52.114;5.492;2023-05-10T00:22:14;0.50;;;0.50;;
69327;SDS011;56472;52.114;5.492;2023-05-10T00:24:41;0.45;;;0.45;;
69327;SDS011;56472;52.114;5.492;2023-05-10T00:27:08;0.55;;;0.55;;
69327;SDS011;56472;52.114;5.492;2023-05-10T00:29:35;0.80;;;0.60;;
69327;SDS011;56472;52.114;5.492;2023-05-10T00:32:02;0.70;;;0.70;;
69327;SDS011;56472;52.114;5.492;2023-05-10T00:34:29;0.52;;;0.52;;
69327;SDS011;56472;52.114;5.492;2023-05-10T00:36:56;0.80;;;0.68;;
69327;SDS011;56472;52.114;5.492;2023-05-10T00:39:23;0.68;;;0.68;;
69327;SDS011;56472;52.114;5.492;2023-05-10T00:41:50;1.08;;;0.73;;
69327;SDS011;56472;52.114;5.492;2023-05-10T00:44:17;0.80;;;0.80;;
69327;SDS011;56472;52.114;5.492;2023-05-10T00:46:44;0.90;;;0.90;;
69327;SDS011;56472;52.114;5.492;2023-05-10T00:49:12;1.30;;;1.30;;
69327;SDS011;56472;52.114;5.492;2023-05-10T00:51:39;0.80;;;0.80;;
69327;SDS011;56472;52.114;5.492;2023-05-10T00:54:10;2.08;;;1.00;;
69327;SDS011;56472;52.114;5.492;2023-05-10T00:56:38;1.90;;;1.15;;
69327;SDS011;56472;52.114;5.492;2023-05-10T00:59:07;1.02;;;1.02;;
69327;SDS011;56472;52.114;5.492;2023-05-10T01:01:35;1.10;;;1.08;;
69327;SDS011;56472;52.114;5.492;2023-05-10T01:04:02;1.10;;;1.10;;
69327;SDS011;56472;52.114;5.492;2023-05-10T01:06:30;1.35;;;1.25;;
69327;SDS011;56472;52.114;5.492;2023-05-10T01:08:56;1.00;;;1.00;;
69327;SDS011;56472;52.114;5.492;2023-05-10T01:11:23;1.90;;;1.80;;
69327;SDS011;56472;52.114;5.492;2023-05-10T01:13:52;0.90;;;0.90;;
69327;SDS011;56472;52.114;5.492;2023-05-10T01:16:23;1.25;;;1.25;;
69327;SDS011;56472;52.114;5.492;2023-05-10T01:18:51;1.60;;;1.50;;
69327;SDS011;56472;52.114;5.492;2023-05-10T01:21:22;1.40;;;1.30;;
69327;SDS011;56472;52.114;5.492;2023-05-10T01:38:32;2.58;;;1.65;;
69327;SDS011;56472;52.114;5.492;2023-05-10T01:44:04;1.38;;;1.38;;
69327;SDS011;56472;52.114;5.492;2023-05-10T01:46:38;1.58;;;1.48;;
69327;SDS011;56472;52.114;5.492;2023-05-10T01:49:11;1.60;;;1.50;;
69327;SDS011;56472;52.114;5.492;2023-05-10T01:51:47;1.80;;;1.70;;
69327;SDS011;56472;52.114;5.492;2023-05-10T01:54:19;2.80;;;1.50;;
69327;SDS011;56472;52.114;5.492;2023-05-10T01:56:47;1.95;;;1.85;;
69327;SDS011;56472;52.114;5.492;2023-05-10T01:59:21;1.67;;;1.65;;
69327;SDS011;56472;52.114;5.492;2023-05-10T02:01:51;1.48;;;1.38;;
69327;SDS011;56472;52.114;5.492;2023-05-10T02:04:19;1.80;;;1.70;;
69327;SDS011;56472;52.114;5.492;2023-05-10T02:06:49;2.22;;;1.52;;
69327;SDS011;56472;52.114;5.492;2023-05-10T02:09:19;1.48;;;1.48;;
69327;SDS011;56472;52.114;5.492;2023-05-10T02:11:49;1.83;;;1.73;;
69327;SDS011;56472;52.114;5.492;2023-05-10T02:14:16;1.63;;;1.52;;
69327;SDS011;56472;52.114;5.492;2023-05-10T02:16:45;1.50;;;1.50;;
69327;SDS011;56472;52.114;5.492;2023-05-10T02:19:13;1.70;;;1.60;;
69327;SDS011;56472;52.114;5.492;2023-05-10T02:21:41;1.90;;;1.80;;
69327;SDS011;56472;52.114;5.492;2023-05-10T02:24:10;1.73;;;1.63;;
69327;SDS011;56472;52.114;5.492;2023-05-10T02:26:37;1.50;;;1.40;;
69327;SDS011;56472;52.114;5.492;2023-05-10T02:29:04;1.50;;;1.40;;
69327;SDS011;56472;52.114;5.492;2023-05-10T02:31:33;1.75;;;1.65;;
69327;SDS011;56472;52.114;5.492;2023-05-10T02:34:02;1.58;;;1.50;;
69327;SDS011;56472;52.114;5.492;2023-05-10T02:36:30;1.60;;;1.50;;
69327;SDS011;56472;52.114;5.492;2023-05-10T02:38:58;1.30;;;1.30;;
69327;SDS011;56472;52.114;5.492;2023-05-10T02:41:26;2.05;;;1.95;;
69327;SDS011;56472;52.114;5.492;2023-05-10T02:43:55;1.83;;;1.73;;
69327;SDS011;56472;52.114;5.492;2023-05-10T02:46:25;1.67;;;1.58;;
69327;SDS011;56472;52.114;5.492;2023-05-10T02:48:52;1.77;;;1.67;;
69327;SDS011;56472;52.114;5.492;2023-05-10T02:51:19;1.80;;;1.70;;
69327;SDS011;56472;52.114;5.492;2023-05-10T02:53:50;1.98;;;1.88;;
69327;SDS011;56472;52.114;5.492;2023-05-10T02:56:28;1.85;;;1.75;;
69327;SDS011;56472;52.114;5.492;2023-05-10T02:58:59;1.63;;;1.52;;
69327;SDS011;56472;52.114;5.492;2023-05-10T03:01:26;1.80;;;1.70;;
69327;SDS011;56472;52.114;5.492;2023-05-10T03:03:53;1.85;;;1.75;;
69327;SDS011;56472;52.114;5.492;2023-05-10T03:06:20;1.80;;;1.70;;
69327;SDS011;56472;52.114;5.492;2023-05-10T03:08:47;1.90;;;1.70;;
69327;SDS011;56472;52.114;5.492;2023-05-10T03:16:58;1.88;;;1.77;;
69327;SDS011;56472;52.114;5.492;2023-05-10T03:19:35;2.35;;;2.15;;
69327;SDS011;56472;52.114;5.492;2023-05-10T03:22:11;2.55;;;2.35;;
69327;SDS011;56472;52.114;5.492;2023-05-10T03:24:43;2.13;;;2.03;;
69327;SDS011;56472;52.114;5.492;2023-05-10T03:27:11;2.20;;;2.10;;
69327;SDS011;56472;52.114;5.492;2023-05-10T03:29:41;2.60;;;2.40;;
69327;SDS011;56472;52.114;5.492;2023-05-10T03:32:09;2.20;;;2.10;;
69327;SDS011;56472;52.114;5.492;2023-05-10T03:34:40;2.63;;;2.53;;
69327;SDS011;56472;52.114;5.492;2023-05-10T03:37:09;2.55;;;2.45;;
69327;SDS011;56472;52.114;5.492;2023-05-10T03:39:36;2.20;;;2.10;;
69327;SDS011;56472;52.114;5.492;2023-05-10T03:42:06;2.22;;;2.13;;
69327;SDS011;56472;52.114;5.492;2023-05-10T03:44:33;2.40;;;2.30;;
69327;SDS011;56472;52.114;5.492;2023-05-10T03:46:59;2.72;;;2.53;;
69327;SDS011;56472;52.114;5.492;2023-05-10T03:49:27;2.70;;;2.50;;
69327;SDS011;56472;52.114;5.492;2023-05-10T03:51:54;2.90;;;2.70;;
69327;SDS011;56472;52.114;5.492;2023-05-10T03:54:21;2.50;;;2.40;;
69327;SDS011;56472;52.114;5.492;2023-05-10T03:56:47;2.90;;;2.70;;
69327;SDS011;56472;52.114;5.492;2023-05-10T03:59:16;3.00;;;2.80;;
69327;SDS011;56472;52.114;5.492;2023-05-10T04:01:43;2.90;;;2.70;;
69327;SDS011;56472;52.114;5.492;2023-05-10T04:04:10;2.90;;;2.70;;
69327;SDS011;56472;52.114;5.492;2023-05-10T04:06:37;2.90;;;2.70;;
69327;SDS011;56472;52.114;5.492;2023-05-10T04:09:04;3.50;;;3.15;;
69327;SDS011;56472;52.114;5.492;2023-05-10T04:11:31;3.40;;;2.67;;
69327;SDS011;56472;52.114;5.492;2023-05-10T04:13:58;2.97;;;2.78;;
69327;SDS011;56472;52.114;5.492;2023-05-10T04:16:25;3.17;;;2.95;;
69327;SDS011;56472;52.114;5.492;2023-05-10T04:18:52;2.80;;;2.58;;
69327;SDS011;56472;52.114;5.492;2023-05-10T04:21:19;2.83;;;2.63;;
69327;SDS011;56472;52.114;5.492;2023-05-10T04:23:45;2.70;;;2.50;;
69327;SDS011;56472;52.114;5.492;2023-05-10T04:26:13;2.90;;;2.70;;
69327;SDS011;56472;52.114;5.492;2023-05-10T04:28:39;3.00;;;2.70;;
69327;SDS011;56472;52.114;5.492;2023-05-10T04:31:07;2.85;;;2.65;;
69327;SDS011;56472;52.114;5.492;2023-05-10T04:33:35;3.20;;;2.90;;
69327;SDS011;56472;52.114;5.492;2023-05-10T04:36:02;2.88;;;2.67;;
69327;SDS011;56472;52.114;5.492;2023-05-10T04:38:29;2.90;;;2.70;;
69327;SDS011;56472;52.114;5.492;2023-05-10T04:41:09;3.22;;;2.90;;
69327;SDS011;56472;52.114;5.492;2023-05-10T04:43:37;3.08;;;2.88;;
69327;SDS011;56472;52.114;5.492;2023-05-10T04:46:04;2.80;;;2.60;;
69327;SDS011;56472;52.114;5.492;2023-05-10T04:48:32;2.47;;;2.35;;
69327;SDS011;56472;52.114;5.492;2023-05-10T04:50:59;2.80;;;2.55;;
69327;SDS011;56472;52.114;5.492;2023-05-10T04:53:26;2.70;;;2.50;;
69327;SDS011;56472;52.114;5.492;2023-05-10T04:55:53;2.72;;;2.22;;
69327;SDS011;56472;52.114;5.492;2023-05-10T04:58:19;3.03;;;2.80;;
69327;SDS011;56472;52.114;5.492;2023-05-10T05:00:47;2.90;;;2.67;;
69327;SDS011;56472;52.114;5.492;2023-05-10T05:03:14;2.60;;;2.40;;
69327;SDS011;56472;52.114;5.492;2023-05-10T05:05:41;2.50;;;2.40;;
69327;SDS011;56472;52.114;5.492;2023-05-10T05:08:08;2.50;;;2.30;;
69327;SDS011;56472;52.114;5.492;2023-05-10T05:10:35;2.40;;;2.30;;
69327;SDS011;56472;52.114;5.492;2023-05-10T05:13:02;2.55;;;2.45;;
69327;SDS011;56472;52.114;5.492;2023-05-10T05:15:29;2.53;;;2.38;;
69327;SDS011;56472;52.114;5.492;2023-05-10T05:17:57;4.18;;;2.70;;
69327;SDS011;56472;52.114;5.492;2023-05-10T05:20:24;3.45;;;3.10;;
69327;SDS011;56472;52.114;5.492;2023-05-10T05:22:51;4.07;;;3.10;;
69327;SDS011;56472;52.114;5.492;2023-05-10T05:25:17;3.20;;;2.83;;
69327;SDS011;56472;52.114;5.492;2023-05-10T05:27:44;2.97;;;2.78;;
69327;SDS011;56472;52.114;5.492;2023-05-10T05:30:11;5.55;;;3.10;;
69327;SDS011;56472;52.114;5.492;2023-05-10T05:32:38;3.28;;;3.08;;
69327;SDS011;56472;52.114;5.492;2023-05-10T05:35:06;7.57;;;3.63;;
69327;SDS011;56472;52.114;5.492;2023-05-10T05:37:33;4.05;;;3.65;;
69327;SDS011;56472;52.114;5.492;2023-05-10T05:40:00;4.57;;;3.95;;
69327;SDS011;56472;52.114;5.492;2023-05-10T05:42:27;3.83;;;3.53;;
69327;SDS011;56472;52.114;5.492;2023-05-10T05:44:54;3.50;;;3.28;;
69327;SDS011;56472;52.114;5.492;2023-05-10T05:47:21;4.97;;;3.58;;
69327;SDS011;56472;52.114;5.492;2023-05-10T05:49:48;6.30;;;3.97;;
69327;SDS011;56472;52.114;5.492;2023-05-10T05:52:15;4.40;;;4.00;;
69327;SDS011;56472;52.114;5.492;2023-05-10T05:54:42;5.65;;;4.15;;
69327;SDS011;56472;52.114;5.492;2023-05-10T05:57:09;5.10;;;3.83;;
69327;SDS011;56472;52.114;5.492;2023-05-10T05:59:36;4.18;;;3.88;;
69327;SDS011;56472;52.114;5.492;2023-05-10T06:02:08;5.40;;;4.05;;
69327;SDS011;56472;52.114;5.492;2023-05-10T06:04:35;6.55;;;4.43;;
69327;SDS011;56472;52.114;5.492;2023-05-10T06:07:02;6.47;;;4.40;;
69327;SDS011;56472;52.114;5.492;2023-05-10T06:09:29;9.93;;;5.40;;
69327;SDS011;56472;52.114;5.492;2023-05-10T06:11:56;6.15;;;4.82;;
69327;SDS011;56472;52.114;5.492;2023-05-10T06:14:23;6.32;;;4.95;;
69327;SDS011;56472;52.114;5.492;2023-05-10T06:16:50;4.90;;;4.43;;
69327;SDS011;56472;52.114;5.492;2023-05-10T06:19:17;6.53;;;4.28;;
69327;SDS011;56472;52.114;5.492;2023-05-10T06:21:44;6.88;;;4.68;;
69327;SDS011;56472;52.114;5.492;2023-05-10T06:24:11;9.18;;;4.82;;
69327;SDS011;56472;52.114;5.492;2023-05-10T06:26:38;7.22;;;5.32;;
69327;SDS011;56472;52.114;5.492;2023-05-10T06:29:04;7.90;;;5.60;;
69327;SDS011;56472;52.114;5.492;2023-05-10T06:31:32;10.18;;;6.20;;
69327;SDS011;56472;52.114;5.492;2023-05-10T06:33:59;7.05;;;5.63;;
69327;SDS011;56472;52.114;5.492;2023-05-10T06:36:26;7.50;;;5.93;;
69327;SDS011;56472;52.114;5.492;2023-05-10T06:38:53;8.52;;;6.25;;
69327;SDS011;56472;52.114;5.492;2023-05-10T06:41:20;5.95;;;5.15;;
69327;SDS011;56472;52.114;5.492;2023-05-10T06:43:50;7.10;;;5.45;;
69327;SDS011;56472;52.114;5.492;2023-05-10T06:46:17;6.25;;;5.32;;
69327;SDS011;56472;52.114;5.492;2023-05-10T06:48:44;6.50;;;5.45;;
69327;SDS011;56472;52.114;5.492;2023-05-10T06:51:11;12.27;;;5.53;;
69327;SDS011;56472;52.114;5.492;2023-05-10T06:53:37;7.45;;;5.85;;
69327;SDS011;56472;52.114;5.492;2023-05-10T06:56:04;7.45;;;5.45;;
69327;SDS011;56472;52.114;5.492;2023-05-10T06:58:31;7.40;;;5.28;;
69327;SDS011;56472;52.114;5.492;2023-05-10T07:01:02;5.75;;;5.05;;
69327;SDS011;56472;52.114;5.492;2023-05-10T07:03:30;6.45;;;4.85;;
69327;SDS011;56472;52.114;5.492;2023-05-10T07:06:01;6.97;;;4.72;;
69327;SDS011;56472;52.114;5.492;2023-05-10T07:08:41;9.75;;;4.60;;
69327;SDS011;56472;52.114;5.492;2023-05-10T07:11:08;5.22;;;4.47;;
69327;SDS011;56472;52.114;5.492;2023-05-10T07:13:34;5.20;;;4.50;;
69327;SDS011;56472;52.114;5.492;2023-05-10T07:16:02;5.55;;;4.47;;
69327;SDS011;56472;52.114;5.492;2023-05-10T07:18:30;6.18;;;4.75;;
69327;SDS011;56472;52.114;5.492;2023-05-10T07:20:57;9.68;;;4.78;;
69327;SDS011;56472;52.114;5.492;2023-05-10T07:23:24;5.20;;;4.05;;
69327;SDS011;56472;52.114;5.492;2023-05-10T07:25:51;8.35;;;4.35;;
69327;SDS011;56472;52.114;5.492;2023-05-10T07:28:18;5.75;;;4.15;;
69327;SDS011;56472;52.114;5.492;2023-05-10T07:30:46;3.80;;;3.50;;
69327;SDS011;56472;52.114;5.492;2023-05-10T07:33:13;4.30;;;3.88;;
69327;SDS011;56472;52.114;5.492;2023-05-10T07:35:41;4.35;;;3.95;;
69327;SDS011;56472;52.114;5.492;2023-05-10T07:38:08;4.57;;;3.35;;
69327;SDS011;56472;52.114;5.492;2023-05-10T07:40:37;3.55;;;3.25;;
69327;SDS011;56472;52.114;5.492;2023-05-10T07:43:04;3.58;;;3.25;;
69327;SDS011;56472;52.114;5.492;2023-05-10T07:45:32;3.53;;;3.22;;
69327;SDS011;56472;52.114;5.492;2023-05-10T07:47:59;3.75;;;3.45;;
69327;SDS011;56472;52.114;5.492;2023-05-10T07:50:26;4.15;;;3.40;;
69327;SDS011;56472;52.114;5.492;2023-05-10T07:52:53;3.15;;;2.90;;
69327;SDS011;56472;52.114;5.492;2023-05-10T07:55:20;3.42;;;3.13;;
69327;SDS011;56472;52.114;5.492;2023-05-10T07:57:47;3.90;;;3.00;;
69327;SDS011;56472;52.114;5.492;2023-05-10T08:00:18;4.75;;;3.15;;
69327;SDS011;56472;52.114;5.492;2023-05-10T08:02:46;5.68;;;3.75;;
69327;SDS011;56472;52.114;5.492;2023-05-10T08:05:14;3.45;;;3.15;;
69327;SDS011;56472;52.114;5.492;2023-05-10T08:07:41;3.47;;;3.17;;
69327;SDS011;56472;52.114;5.492;2023-05-10T08:10:09;3.20;;;3.00;;
69327;SDS011;56472;52.114;5.492;2023-05-10T08:12:37;3.30;;;3.10;;
69327;SDS011;56472;52.114;5.492;2023-05-10T08:15:05;3.00;;;2.80;;
69327;SDS011;56472;52.114;5.492;2023-05-10T08:17:33;4.65;;;3.05;;
69327;SDS011;56472;52.114;5.492;2023-05-10T08:20:00;3.50;;;3.20;;
69327;SDS011;56472;52.114;5.492;2023-05-10T08:22:27;3.15;;;2.95;;
69327;SDS011;56472;52.114;5.492;2023-05-10T08:24:55;4.22;;;3.08;;
69327;SDS011;56472;52.114;5.492;2023-05-10T08:27:21;3.60;;;3.28;;
69327;SDS011;56472;52.114;5.492;2023-05-10T08:29:48;4.20;;;3.08;;
69327;SDS011;56472;52.114;5.492;2023-05-10T08:32:16;3.42;;;3.13;;
69327;SDS011;56472;52.114;5.492;2023-05-10T08:34:43;3.33;;;3.13;;
69327;SDS011;56472;52.114;5.492;2023-05-10T08:37:10;5.25;;;3.40;;
69327;SDS011;56472;52.114;5.492;2023-05-10T08:39:39;2.85;;;2.70;;
69327;SDS011;56472;52.114;5.492;2023-05-10T08:42:06;3.05;;;2.63;;
69327;SDS011;56472;52.114;5.492;2023-05-10T08:44:35;2.50;;;2.33;;
69327;SDS011;56472;52.114;5.492;2023-05-10T08:47:06;2.95;;;2.75;;
69327;SDS011;56472;52.114;5.492;2023-05-10T08:49:35;2.35;;;2.25;;
69327;SDS011;56472;52.114;5.492;2023-05-10T08:52:04;2.67;;;2.58;;
69327;SDS011;56472;52.114;5.492;2023-05-10T08:54:33;3.13;;;2.30;;
69327;SDS011;56472;52.114;5.492;2023-05-10T08:57:00;2.58;;;2.47;;
69327;SDS011;56472;52.114;5.492;2023-05-10T08:59:28;2.72;;;2.50;;
69327;SDS011;56472;52.114;5.492;2023-05-10T09:01:58;2.97;;;2.70;;
69327;SDS011;56472;52.114;5.492;2023-05-10T09:04:26;2.80;;;2.60;;
69327;SDS011;56472;52.114;5.492;2023-05-10T09:06:53;2.28;;;2.17;;
69327;SDS011;56472;52.114;5.492;2023-05-10T09:09:20;2.72;;;2.60;;
69327;SDS011;56472;52.114;5.492;2023-05-10T09:11:48;2.65;;;2.55;;
69327;SDS011;56472;52.114;5.492;2023-05-10T09:14:15;2.80;;;2.60;;
69327;SDS011;56472;52.114;5.492;2023-05-10T09:16:43;2.60;;;2.40;;
69327;SDS011;56472;52.114;5.492;2023-05-10T09:19:10;2.30;;;2.20;;
69327;SDS011;56472;52.114;5.492;2023-05-10T09:21:37;9.57;;;2.33;;
69327;SDS011;56472;52.114;5.492;2023-05-10T09:24:05;2.20;;;2.10;;
69327;SDS011;56472;52.114;5.492;2023-05-10T09:26:33;2.40;;;2.30;;
69327;SDS011;56472;52.114;5.492;2023-05-10T09:29:02;2.80;;;2.60;;
69327;SDS011;56472;52.114;5.492;2023-05-10T09:31:45;2.28;;;2.17;;
69327;SDS011;56472;52.114;5.492;2023-05-10T09:34:17;2.88;;;2.22;;
69327;SDS011;56472;52.114;5.492;2023-05-10T09:36:52;5.65;;;2.22;;
69327;SDS011;56472;52.114;5.492;2023-05-10T09:39:57;2.55;;;2.42;;
69327;SDS011;56472;52.114;5.492;2023-05-10T09:42:20;2.10;;;2.00;;
69327;SDS011;56472;52.114;5.492;2023-05-10T09:44:47;2.15;;;2.05;;
69327;SDS011;56472;52.114;5.492;2023-05-10T09:47:17;2.30;;;2.20;;
69327;SDS011;56472;52.114;5.492;2023-05-10T09:49:52;2.50;;;2.40;;
69327;SDS011;56472;52.114;5.492;2023-05-10T09:52:22;2.25;;;2.15;;
69327;SDS011;56472;52.114;5.492;2023-05-10T09:54:52;2.20;;;2.10;;
69327;SDS011;56472;52.114;5.492;2023-05-10T09:57:20;1.83;;;1.73;;
69327;SDS011;56472;52.114;5.492;2023-05-10T09:59:49;2.30;;;2.10;;
69327;SDS011;56472;52.114;5.492;2023-05-10T10:02:16;1.90;;;1.80;;
69327;SDS011;56472;52.114;5.492;2023-05-10T10:04:43;1.90;;;1.80;;
69327;SDS011;56472;52.114;5.492;2023-05-10T10:07:10;1.98;;;1.85;;
69327;SDS011;56472;52.114;5.492;2023-05-10T10:09:38;2.00;;;1.90;;
69327;SDS011;56472;52.114;5.492;2023-05-10T10:12:05;1.98;;;1.88;;
69327;SDS011;56472;52.114;5.492;2023-05-10T10:14:32;1.67;;;1.63;;
69327;SDS011;56472;52.114;5.492;2023-05-10T10:17:00;1.80;;;1.70;;
69327;SDS011;56472;52.114;5.492;2023-05-10T10:19:30;1.75;;;1.65;;
69327;SDS011;56472;52.114;5.492;2023-05-10T10:21:59;2.65;;;1.83;;
69327;SDS011;56472;52.114;5.492;2023-05-10T10:24:26;1.55;;;1.55;;
69327;SDS011;56472;52.114;5.492;2023-05-10T10:26:54;1.45;;;1.40;;
69327;SDS011;56472;52.114;5.492;2023-05-10T10:29:42;1.80;;;1.70;;
69327;SDS011;56472;52.114;5.492;2023-05-10T10:32:33;1.48;;;1.48;;
69327;SDS011;56472;52.114;5.492;2023-05-10T10:35:02;1.80;;;1.70;;
69327;SDS011;56472;52.114;5.492;2023-05-10T10:37:43;1.52;;;1.50;;
69327;SDS011;56472;52.114;5.492;2023-05-10T10:42:55;1.50;;;1.40;;
69327;SDS011;56472;52.114;5.492;2023-05-10T10:45:24;1.73;;;1.73;;
69327;SDS011;56472;52.114;5.492;2023-05-10T10:50:47;1.80;;;1.70;;
69327;SDS011;56472;52.114;5.492;2023-05-10T10:53:14;1.80;;;1.70;;
69327;SDS011;56472;52.114;5.492;2023-05-10T10:55:47;1.80;;;1.70;;
69327;SDS011;56472;52.114;5.492;2023-05-10T10:58:30;1.80;;;1.70;;
69327;SDS011;56472;52.114;5.492;2023-05-10T11:06:29;1.40;;;1.40;;
69327;SDS011;56472;52.114;5.492;2023-05-10T11:08:58;1.90;;;1.80;;
69327;SDS011;56472;52.114;5.492;2023-05-10T11:11:31;1.55;;;1.45;;
69327;SDS011;56472;52.114;5.492;2023-05-10T11:14:02;1.60;;;1.50;;
69327;SDS011;56472;52.114;5.492;2023-05-10T11:16:43;1.65;;;1.63;;
69327;SDS011;56472;52.114;5.492;2023-05-10T11:19:11;1.80;;;1.70;;
69327;SDS011;56472;52.114;5.492;2023-05-10T11:21:46;1.70;;;1.60;;
69327;SDS011;56472;52.114;5.492;2023-05-10T11:24:37;1.50;;;1.50;;
69327;SDS011;56472;52.114;5.492;2023-05-10T11:27:03;1.85;;;1.75;;
69327;SDS011;56472;52.114;5.492;2023-05-10T11:29:31;1.88;;;1.58;;
69327;SDS011;56472;52.114;5.492;2023-05-10T11:31:58;2.58;;;1.65;;
69327;SDS011;56472;52.114;5.492;2023-05-10T11:34:30;5.70;;;2.35;;
69327;SDS011;56472;52.114;5.492;2023-05-10T11:37:00;3.22;;;2.38;;
69327;SDS011;56472;52.114;5.492;2023-05-10T11:39:27;6.35;;;2.30;;
69327;SDS011;56472;52.114;5.492;2023-05-10T11:41:56;2.60;;;2.40;;
69327;SDS011;56472;52.114;5.492;2023-05-10T11:44:28;3.65;;;2.00;;
69327;SDS011;56472;52.114;5.492;2023-05-10T11:46:59;2.47;;;2.38;;
69327;SDS011;56472;52.114;5.492;2023-05-10T11:49:26;3.67;;;2.40;;
69327;SDS011;56472;52.114;5.492;2023-05-10T11:52:03;2.30;;;2.17;;
69327;SDS011;56472;52.114;5.492;2023-05-10T11:54:33;6.35;;;2.95;;
69327;SDS011;56472;52.114;5.492;2023-05-10T11:57:01;2.28;;;2.08;;
69327;SDS011;56472;52.114;5.492;2023-05-10T11:59:28;1.90;;;1.80;;
69327;SDS011;56472;52.114;5.492;2023-05-10T12:01:55;2.03;;;1.90;;
69327;SDS011;56472;52.114;5.492;2023-05-10T12:04:23;1.90;;;1.80;;
69327;SDS011;56472;52.114;5.492;2023-05-10T12:06:50;1.70;;;1.60;;
69327;SDS011;56472;52.114;5.492;2023-05-10T12:09:17;2.53;;;1.90;;
69327;SDS011;56472;52.114;5.492;2023-05-10T12:11:57;1.83;;;1.73;;
69327;SDS011;56472;52.114;5.492;2023-05-10T12:14:23;1.92;;;1.70;;
69327;SDS011;56472;52.114;5.492;2023-05-10T12:16:50;1.90;;;1.80;;
69327;SDS011;56472;52.114;5.492;2023-05-10T12:19:20;2.22;;;2.00;;
69327;SDS011;56472;52.114;5.492;2023-05-10T12:21:47;2.88;;;2.60;;
69327;SDS011;56472;52.114;5.492;2023-05-10T12:24:14;3.63;;;1.90;;
69327;SDS011;56472;52.114;5.492;2023-05-10T12:26:47;3.28;;;1.75;;
69327;SDS011;56472;52.114;5.492;2023-05-10T12:29:15;16.08;;;2.72;;
69327;SDS011;56472;52.114;5.492;2023-05-10T12:34:34;2.42;;;2.22;;
69327;SDS011;56472;52.114;5.492;2023-05-10T12:37:02;2.30;;;2.20;;
69327;SDS011;56472;52.114;5.492;2023-05-10T12:39:42;2.15;;;2.00;;
69327;SDS011;56472;52.114;5.492;2023-05-10T12:42:10;2.35;;;1.65;;
69327;SDS011;56472;52.114;5.492;2023-05-10T12:44:38;1.65;;;1.58;;
69327;SDS011;56472;52.114;5.492;2023-05-10T12:47:05;1.77;;;1.67;;
69327;SDS011;56472;52.114;5.492;2023-05-10T12:49:32;2.47;;;1.70;;
69327;SDS011;56472;52.114;5.492;2023-05-10T12:52:00;1.73;;;1.58;;
69327;SDS011;56472;52.114;5.492;2023-05-10T12:54:27;1.58;;;1.48;;
69327;SDS011;56472;52.114;5.492;2023-05-10T12:56:54;1.63;;;1.52;;
69327;SDS011;56472;52.114;5.492;2023-05-10T12:59:21;1.63;;;1.52;;
69327;SDS011;56472;52.114;5.492;2023-05-10T13:01:49;1.40;;;1.30;;
69327;SDS011;56472;52.114;5.492;2023-05-10T13:04:15;4.07;;;1.67;;
69327;SDS011;56472;52.114;5.492;2023-05-10T13:06:42;1.50;;;1.40;;
69327;SDS011;56472;52.114;5.492;2023-05-10T13:09:09;1.42;;;1.42;;
69327;SDS011;56472;52.114;5.492;2023-05-10T13:11:36;2.42;;;1.40;;
69327;SDS011;56472;52.114;5.492;2023-05-10T13:14:03;1.45;;;1.35;;
69327;SDS011;56472;52.114;5.492;2023-05-10T13:16:30;1.20;;;1.20;;
69327;SDS011;56472;52.114;5.492;2023-05-10T13:18:57;2.45;;;1.17;;
69327;SDS011;56472;52.114;5.492;2023-05-10T13:21:24;1.13;;;1.10;;
69327;SDS011;56472;52.114;5.492;2023-05-10T13:23:52;2.05;;;1.55;;
69327;SDS011;56472;52.114;5.492;2023-05-10T13:26:19;1.23;;;1.20;;
69327;SDS011;56472;52.114;5.492;2023-05-10T13:28:46;3.10;;;1.60;;
69327;SDS011;56472;52.114;5.492;2023-05-10T13:31:13;2.42;;;1.60;;
69327;SDS011;56472;52.114;5.492;2023-05-10T13:33:40;2.67;;;1.55;;
69327;SDS011;56472;52.114;5.492;2023-05-10T13:36:07;3.33;;;1.67;;
69327;SDS011;56472;52.114;5.492;2023-05-10T13:38:34;4.00;;;2.00;;
69327;SDS011;56472;52.114;5.492;2023-05-10T13:41:01;2.83;;;2.33;;
69327;SDS011;56472;52.114;5.492;2023-05-10T13:43:28;4.28;;;1.88;;
69327;SDS011;56472;52.114;5.492;2023-05-10T13:45:55;3.15;;;1.92;;
69327;SDS011;56472;52.114;5.492;2023-05-10T13:48:22;3.60;;;1.90;;
69327;SDS011;56472;52.114;5.492;2023-05-10T13:50:49;7.00;;;2.08;;
69327;SDS011;56472;52.114;5.492;2023-05-10T13:53:16;1.73;;;1.63;;
69327;SDS011;56472;52.114;5.492;2023-05-10T13:55:43;2.25;;;1.67;;
69327;SDS011;56472;52.114;5.492;2023-05-10T13:58:10;3.00;;;1.83;;
69327;SDS011;56472;52.114;5.492;2023-05-10T14:00:36;2.80;;;2.00;;
69327;SDS011;56472;52.114;5.492;2023-05-10T14:03:03;2.38;;;2.00;;
69327;SDS011;56472;52.114;5.492;2023-05-10T14:05:31;1.95;;;1.70;;
69327;SDS011;56472;52.114;5.492;2023-05-10T14:07:58;4.32;;;1.92;;
69327;SDS011;56472;52.114;5.492;2023-05-10T14:10:25;1.63;;;1.52;;
69327;SDS011;56472;52.114;5.492;2023-05-10T14:12:52;1.70;;;1.60;;
69327;SDS011;56472;52.114;5.492;2023-05-10T14:15:19;1.80;;;1.70;;
69327;SDS011;56472;52.114;5.492;2023-05-10T14:17:46;2.90;;;1.30;;
69327;SDS011;56472;52.114;5.492;2023-05-10T14:20:14;5.32;;;2.00;;
69327;SDS011;56472;52.114;5.492;2023-05-10T14:22:41;1.80;;;1.65;;
69327;SDS011;56472;52.114;5.492;2023-05-10T14:25:08;2.05;;;1.65;;
69327;SDS011;56472;52.114;5.492;2023-05-10T14:27:35;1.50;;;1.40;;
69327;SDS011;56472;52.114;5.492;2023-05-10T14:30:02;2.38;;;1.73;;
69327;SDS011;56472;52.114;5.492;2023-05-10T14:32:29;3.15;;;1.70;;
69327;SDS011;56472;52.114;5.492;2023-05-10T14:34:58;1.65;;;1.52;;
69327;SDS011;56472;52.114;5.492;2023-05-10T14:37:25;1.58;;;1.48;;
69327;SDS011;56472;52.114;5.492;2023-05-10T14:39:52;2.47;;;1.60;;
69327;SDS011;56472;52.114;5.492;2023-05-10T14:42:20;1.98;;;1.75;;
69327;SDS011;56472;52.114;5.492;2023-05-10T14:44:47;2.90;;;1.60;;
69327;SDS011;56472;52.114;5.492;2023-05-10T14:47:14;1.73;;;1.60;;
69327;SDS011;56472;52.114;5.492;2023-05-10T14:49:41;1.63;;;1.52;;
69327;SDS011;56472;52.114;5.492;2023-05-10T14:52:08;1.80;;;1.55;;
69327;SDS011;56472;52.114;5.492;2023-05-10T14:54:35;1.50;;;1.40;;
69327;SDS011;56472;52.114;5.492;2023-05-10T14:57:02;1.77;;;1.67;;
69327;SDS011;56472;52.114;5.492;2023-05-10T14:59:28;1.40;;;1.35;;
69327;SDS011;56472;52.114;5.492;2023-05-10T15:01:56;1.52;;;1.40;;
69327;SDS011;56472;52.114;5.492;2023-05-10T15:04:23;4.05;;;1.73;;
69327;SDS011;56472;52.114;5.492;2023-05-10T15:06:53;1.98;;;1.60;;
69327;SDS011;56472;52.114;5.492;2023-05-10T15:09:25;2.08;;;1.67;;
69327;SDS011;56472;52.114;5.492;2023-05-10T15:11:54;1.90;;;1.80;;
69327;SDS011;56472;52.114;5.492;2023-05-10T15:14:21;1.88;;;1.50;;
69327;SDS011;56472;52.114;5.492;2023-05-10T15:16:48;1.77;;;1.67;;
69327;SDS011;56472;52.114;5.492;2023-05-10T15:19:15;3.35;;;1.73;;
69327;SDS011;56472;52.114;5.492;2023-05-10T15:21:42;1.95;;;1.80;;
69327;SDS011;56472;52.114;5.492;2023-05-10T15:24:10;1.88;;;1.70;;
69327;SDS011;56472;52.114;5.492;2023-05-10T15:26:37;2.05;;;1.45;;
69327;SDS011;56472;52.114;5.492;2023-05-10T15:29:04;1.50;;;1.40;;
69327;SDS011;56472;52.114;5.492;2023-05-10T15:31:31;1.85;;;1.50;;